Latest Weather Observations for Parawa West

IDS60901

Issued at 5:11 am CDT Tuesday 15 October 2019 (issued every 10 minutes, with the page automatically refreshed every 10 minutes)

About weather observations | Map of Adelaide area stations | Latest observations for Adelaide area | Other Formats
Station Details ID: 023875 Name: SECOND VALLEY FOREST AWS Lat: -35.57 Lon: 138.29 Height: 341.0 m
Data from the previous 72 hours. | See also: Recent months at Parawa West
Date/Time
CDT
Temp
°C
App
Temp
°C
Dew
Point
°C
Rel
Hum
%
Delta-T
°C
Wind Press
QNH
hPa
Press
MSL
hPa
Rain since
9am
mm
Dir  Spd
km/h
Gust
km/h
Spd
kts
Gust
kts
15/05:00am 6.4 3.8 6.1 98 0.1 SE 9 13 5 7 1015.1 1014.9 0.2
15/04:30am 7.1 4.3 6.8 98 0.1 SE 11 13 6 7 1015.2 1015.0 0.2
15/04:00am 7.0 4.6 6.9 99 0.0 SSE 9 11 5 6 1015.2 1015.0 0.2
15/03:30am 6.8 3.9 6.7 99 0.0 SSE 11 13 6 7 1014.9 1014.6 0.2
15/03:00am 6.8 3.9 6.7 99 0.0 SSE 11 13 6 7 1015.2 1015.0 0.0
15/02:30am 6.7 4.2 6.6 99 0.0 SSE 9 11 5 6 1015.3 1015.1 0.0
15/02:00am 6.9 4.4 6.6 98 0.1 SSE 9 9 5 5 1015.8 1015.6 0.0
15/01:30am 7.5 5.5 7.2 98 0.1 SSE 7 9 4 5 1016.4 1016.2 0.0
15/01:00am 7.6 5.8 7.3 98 0.1 SSE 6 7 3 4 1016.5 1016.3 0.0
15/12:30am 7.6 5.8 7.3 98 0.1 SSE 6 7 3 4 1016.7 1016.5 0.0
15/12:00am 7.8 5.9 7.5 98 0.1 SSE 7 11 4 6 1016.8 1016.6 0.0
 
Date/Time
CDT
Temp
°C
App
Temp
°C
Dew
Point
°C
Rel
Hum
%
Delta-T
°C
Wind Press
QNH
hPa
Press
MSL
hPa
Rain since
9am
mm
Dir  Spd
km/h
Gust
km/h
Spd
kts
Gust
kts
14/11:30pm 8.4 7.6 8.0 97 0.2 SSE 2 4 1 2 1017.4 1017.1 0.0
14/11:00pm 8.9 8.2 8.6 98 0.1 SSE 2 4 1 2 1017.4 1017.1 0.0
14/10:30pm 8.6 7.4 8.2 97 0.2 SSE 4 6 2 3 1017.5 1017.2 0.0
14/10:00pm 8.4 6.6 7.8 96 0.3 SSE 7 9 4 5 1017.4 1017.1 0.0
14/09:30pm 9.1 8.0 8.5 96 0.3 SSE 4 6 2 3 1017.5 1017.2 0.0
14/09:00pm 10.2 8.8 9.6 96 0.3 SSE 7 11 4 6 1017.0 1016.8 0.0
14/08:30pm 10.5 8.8 9.9 96 0.3 SSE 9 11 5 6 1016.7 1016.5 0.0
14/08:00pm 10.6 8.9 10.0 96 0.3 SSE 9 13 5 7 1016.6 1016.4 0.0
14/07:30pm 10.5 8.7 9.6 94 0.5 SSE 9 11 5 6 1016.2 1016.0 0.0
14/07:00pm 10.5 7.9 9.3 92 0.6 SSE 13 17 7 9 1016.0 1015.8 0.0
14/06:30pm 11.3 8.8 9.6 89 0.9 S 13 19 7 10 1016.0 1015.8 0.0
14/06:00pm 11.4 8.9 9.7 89 0.9 S 13 17 7 9 1015.9 1015.7 0.0
14/05:30pm 11.9 9.5 10.1 89 0.9 S 13 17 7 9 1015.8 1015.6 0.0
14/05:00pm 12.1 9.8 10.3 89 0.9 SSE 13 19 7 10 1015.8 1015.6 0.0
14/04:30pm 12.1 9.8 10.5 90 0.8 S 13 15 7 8 1015.7 1015.5 0.0
14/04:00pm 12.7 10.1 10.8 88 1.0 S 15 20 8 11 1015.4 1015.2 0.0
14/03:30pm 12.2 9.3 9.8 85 1.2 S 15 19 8 10 1015.5 1015.3 0.0
14/03:00pm 12.5 10.9 10.2 86 1.2 S 9 15 5 8 1015.6 1015.4 0.0
14/02:30pm 12.7 10.5 10.8 88 1.0 S 13 17 7 9 1015.6 1015.4 0.0
14/02:00pm 12.9 11.0 10.4 85 1.3 S 11 17 6 9 1015.9 1015.7 0.0
14/01:30pm 12.6 10.8 10.8 89 1.0 S 11 15 6 8 1016.2 1016.0 0.0
14/01:00pm 12.8 10.3 10.9 88 1.0 S 15 20 8 11 1016.2 1016.0 0.0
14/12:30pm 12.3 10.0 10.4 88 1.0 S 13 17 7 9 1016.3 1016.1 0.0
14/12:00pm 11.8 9.4 9.9 88 1.0 S 13 19 7 10 1016.4 1016.2 0.0
14/11:30am 12.0 9.9 9.9 87 1.1 S 11 17 6 9 1016.3 1016.1 0.0
14/11:00am 12.4 10.4 10.3 87 1.1 SSW 11 17 6 9 1016.0 1015.8 0.0
14/10:30am 12.2 10.5 9.8 85 1.2 SSW 9 15 5 8 1015.9 1015.7 0.0
14/10:00am 11.9 9.8 9.6 86 1.2 SSW 11 17 6 9 1015.8 1015.6 0.0
14/09:30am 12.2 10.2 10.1 87 1.1 SSW 11 17 6 9 1015.6 1015.4 0.0
14/09:00am 11.8 10.3 10.4 91 0.7 SW 9 15 5 8 1015.5 1015.3 8.6
14/08:30am 11.8 9.3 11.2 96 0.3 S 15 22 8 12 1015.2 1015.0 8.6
14/08:00am 10.5 8.1 10.2 98 0.2 S 13 17 7 9 1014.7 1014.4 8.6
14/07:30am 9.3 7.4 9.0 98 0.2 S 9 13 5 7 1014.6 1014.3 8.6
14/07:00am 9.1 7.7 8.8 98 0.1 SSW 6 9 3 5 1014.4 1014.1 8.6
14/06:30am 9.2 7.8 8.9 98 0.1 SW 6 9 3 5 1013.8 1013.6 8.6
14/06:00am 9.2 7.6 8.7 97 0.2 WSW 7 11 4 6 1013.5 1013.3 8.6
14/05:30am 9.4 6.7 9.1 98 0.2 WSW 13 22 7 12 1013.1 1012.9 8.6
14/05:00am 9.9 6.9 9.4 97 0.3 WSW 15 22 8 12 1013.1 1012.9 8.6
14/04:30am 10.2 8.1 9.9 98 0.2 W 11 19 6 10 1013.1 1012.9 8.6
14/04:00am 10.7 8.4 10.5 99 0.1 WNW 13 19 7 10 1013.2 1013.0 8.6
14/03:30am 10.7 8.4 10.4 98 0.2 WNW 13 22 7 12 1013.0 1012.8 8.6
14/03:00am 11.1 8.9 10.9 99 0.1 NW 13 17 7 9 1013.1 1012.9 8.6
14/02:30am 11.4 9.3 11.2 99 0.1 WNW 13 20 7 11 1013.3 1013.1 8.6
14/02:00am 11.5 9.1 11.3 99 0.1 WNW 15 22 8 12 1013.4 1013.2 8.6
14/01:30am 11.5 8.7 11.3 99 0.1 WNW 17 24 9 13 1013.6 1013.4 8.6
14/01:00am 11.5 9.4 11.3 99 0.1 NW 13 20 7 11 1013.7 1013.5 8.6
14/12:30am 11.6 8.8 11.4 99 0.1 NW 17 24 9 13 1013.5 1013.3 8.6
14/12:00am 11.5 8.1 11.3 99 0.1 WNW 20 32 11 17 1013.4 1013.2 8.6
 
Date/Time
CDT
Temp
°C
App
Temp
°C
Dew
Point
°C
Rel
Hum
%
Delta-T
°C
Wind Press
QNH
hPa
Press
MSL
hPa
Rain since
9am
mm
Dir  Spd
km/h
Gust
km/h
Spd
kts
Gust
kts
13/11:30pm 11.6 8.2 11.4 99 0.1 NW 20 33 11 18 1013.4 1013.2 8.6
13/11:00pm 11.6 7.9 11.4 99 0.1 NW 22 32 12 17 1013.3 1013.1 8.6
13/10:30pm 11.6 8.4 11.4 99 0.1 NW 19 26 10 14 1013.2 1013.0 8.6
13/10:00pm 11.7 8.3 11.4 98 0.2 NW 20 35 11 19 1013.2 1013.0 8.6
13/09:30pm 12.0 8.9 11.7 98 0.2 NW 19 32 10 17 1013.2 1013.0 8.6
13/09:00pm 12.2 9.0 11.9 98 0.2 NW 20 32 11 17 1013.0 1012.8 8.6
13/08:30pm 12.2 9.6 12.0 99 0.1 NNW 17 28 9 15 1012.6 1012.4 8.6
13/08:00pm 12.3 9.7 12.1 99 0.1 NNW 17 28 9 15 1011.9 1011.6 8.6
13/07:30pm 12.4 9.9 12.2 99 0.1 NW 17 26 9 14 1011.5 1011.2 8.6
13/07:00pm 12.6 10.1 12.3 98 0.2 NNW 17 26 9 14 1011.1 1010.8 8.6
13/06:30pm 12.9 11.2 12.3 96 0.3 NNW 13 28 7 15 1011.4 1011.1 8.2
13/06:00pm 13.0 10.5 12.4 96 0.3 NNW 17 28 9 15 1010.9 1010.7 5.0
13/05:30pm 12.9 9.4 12.3 96 0.3 NNW 22 32 12 17 1011.2 1010.9 4.0
13/05:00pm 13.0 10.1 12.2 95 0.4 NW 19 30 10 16 1011.4 1011.1 2.2
13/04:30pm 13.3 10.3 12.7 96 0.3 NW 20 33 11 18 1010.9 1010.7 1.6
13/04:00pm 13.3 8.4 12.5 95 0.4 NW 30 46 16 25 1011.6 1011.3 0.6
13/03:33pm 13.8 8.3 12.4 91 0.8 WNW 33 54 18 29 1010.6 1010.4 0.4
13/03:30pm 13.8 8.5 12.4 91 0.8 WNW 32 48 17 26 1010.6 1010.4 0.4
13/03:20pm 13.8 8.5 12.4 91 0.8 WNW 32 56 17 30 1010.6 1010.4 0.4
13/03:00pm 13.9 8.7 12.8 93 0.6 WNW 32 48 17 26 1011.3 1011.0 0.4
13/02:30pm 13.8 9.4 13.0 95 0.4 WNW 28 46 15 25 1012.1 1011.8 0.2
13/02:04pm 14.6 10.1 12.5 87 1.2 WNW 28 48 15 26 1012.4 1012.1 0.0
13/02:00pm 14.7 9.1 12.2 85 1.4 WNW 33 48 18 26 1012.4 1012.1 0.0
13/01:32pm 15.6 10.3 11.4 76 2.3 WNW 30 63 16 34 1011.9 1011.6 0.0
13/01:30pm 15.6 10.3 11.4 76 2.3 WNW 30 46 16 25 1011.9 1011.6 0.0
13/01:00pm 16.2 10.7 10.7 70 3.0 NW 30 52 16 28 1011.9 1011.6 0.0
13/12:54pm 16.4 11.3 10.7 69 3.1 NW 28 48 15 26 1011.8 1011.5 0.0
13/12:30pm 16.6 12.7 10.9 69 3.1 NW 22 33 12 18 1011.6 1011.3 0.0
13/12:00pm 16.9 11.1 9.6 62 3.9 NW 30 44 16 24 1011.5 1011.2 0.0
13/11:42am 17.4 11.7 8.5 56 4.6 NW 28 50 15 27 1011.5 1011.2 0.0
13/11:30am 17.3 11.5 7.9 54 4.9 NW 28 39 15 21 1011.5 1011.2 0.0
13/11:00am 17.2 13.1 6.4 49 5.4 NNW 17 24 9 13 1010.9 1010.7 0.0
13/10:30am 18.7 15.3 5.9 43 6.4 NW 13 24 7 13 1010.9 1010.7 0.0
13/10:00am 18.5 15.6 4.7 40 6.7 NW 9 15 5 8 1010.6 1010.4 0.0
13/09:30am 18.2 15.8 4.4 40 6.7 NW 6 9 3 5 1010.3 1010.1 0.0
13/09:00am 18.6 16.1 4.0 38 7.0 NW 6 15 3 8 1010.4 1010.2 0.0
13/08:30am 18.0 16.0 4.6 41 6.5 WNW 4 9 2 5 1010.4 1010.2 0.0
13/08:00am 17.3 15.0 2.9 38 6.7 NW 4 6 2 3 1010.7 1010.5 0.0
13/07:30am 16.6 14.3 2.6 39 6.5 W 4 6 2 3 1010.4 1010.2 0.0
13/07:00am 15.7 13.3 2.2 40 6.1 SSW 4 7 2 4 1010.3 1010.1 0.0
13/06:30am 15.8 13.4 2.2 40 6.2 WSW 4 9 2 5 1010.1 1009.9 0.0
13/06:00am 15.8 13.6 3.3 43 5.8 SW 4 9 2 5 1009.9 1009.6 0.0
13/05:30am 14.9 12.8 3.7 47 5.2 NW 4 6 2 3 1009.8 1009.5 0.0
13/05:00am 14.3 12.5 3.5 48 5.0 N 2 4 1 2 1009.9 1009.6 0.0
13/04:30am 13.6 12.3 4.2 53 4.4 CALM 0 0 0 0 1010.5 1010.3 0.0
13/04:00am 14.0 12.0 4.6 53 4.4 NW 4 6 2 3 1011.2 1010.9 0.0
13/03:30am 15.4 10.8 3.5 45 5.5 NE 17 24 9 13 1011.1 1010.8 0.0
13/03:00am 15.9 10.9 3.7 44 5.7 NE 19 26 10 14 1011.4 1011.1 0.0
13/02:30am 16.1 10.8 2.9 41 6.1 ENE 20 28 11 15 1011.9 1011.6 0.0
13/02:00am 15.9 10.6 3.0 42 6.0 ENE 20 28 11 15 1012.3 1012.0 0.0
13/01:30am 14.9 9.6 3.1 45 5.4 ENE 20 26 11 14 1012.7 1012.5 0.0
13/01:00am 14.7 9.6 3.2 46 5.3 ENE 19 26 10 14 1013.0 1012.8 0.0
13/12:30am 12.7 8.9 5.8 63 3.3 E 15 17 8 9 1013.5 1013.3 0.0
13/12:00am 12.1 8.2 7.2 72 2.4 E 17 20 9 11 1013.6 1013.4 0.0
 
Date/Time
CDT
Temp
°C
App
Temp
°C
Dew
Point
°C
Rel
Hum
%
Delta-T
°C
Wind Press
QNH
hPa
Press
MSL
hPa
Rain since
9am
mm
Dir  Spd
km/h
Gust
km/h
Spd
kts
Gust
kts
12/11:30pm 11.8 8.8 7.7 76 2.0 E 13 19 7 10 1013.9 1013.7 0.0
12/11:00pm 11.7 8.7 7.8 77 1.9 ESE 13 17 7 9 1014.4 1014.1 0.0
12/10:30pm 12.3 8.9 7.6 73 2.3 E 15 20 8 11 1014.6 1014.3 0.0
12/10:00pm 11.2 8.3 8.1 81 1.5 ESE 13 17 7 9 1014.6 1014.3 0.0
12/09:30pm 11.0 8.0 7.7 80 1.6 SE 13 17 7 9 1014.7 1014.4 0.0
12/09:00pm 11.5 8.4 7.4 76 2.0 SE 13 17 7 9 1014.3 1014.0 0.0
12/08:30pm 11.3 7.8 7.2 76 2.0 ESE 15 17 8 9 1013.6 1013.4 0.0
12/08:00pm 11.7 8.7 7.8 77 1.9 ESE 13 20 7 11 1013.2 1013.0 0.0
12/07:30pm 11.1 9.1 8.7 85 1.2 SE 9 11 5 6 1012.9 1012.7 0.0
12/07:00pm 11.9 9.6 9.1 83 1.4 SE 11 13 6 7 1012.9 1012.7 0.0
12/06:30pm 13.5 11.4 9.7 78 2.0 SE 11 15 6 8 1012.6 1012.4 0.0
12/06:00pm 14.5 12.3 10.9 79 1.9 SE 13 15 7 8 1012.4 1012.1 0.0
12/05:30pm 14.9 12.5 11.3 79 2.0 SE 15 19 8 10 1011.7 1011.4 0.0
12/05:00pm 15.4 13.2 12.0 80 1.9 SE 15 19 8 10 1011.7 1011.4 0.0
12/04:30pm 16.4 14.5 11.8 74 2.5 ESE 13 17 7 9 1011.7 1011.4 0.0
12/04:00pm 17.3 15.3 11.6 69 3.2 ESE 13 19 7 10 1011.8 1011.5 0.0
12/03:30pm 17.9 15.9 10.0 60 4.3 E 11 20 6 11 1012.0 1011.7 0.0
12/03:00pm 18.0 16.5 10.6 62 4.0 ENE 9 15 5 8 1012.4 1012.1 0.0
12/02:30pm 17.7 15.8 10.6 63 3.9 E 11 20 6 11 1012.8 1012.6 0.0
12/02:00pm 17.2 14.5 8.9 58 4.4 ENE 13 20 7 11 1013.2 1013.0 0.0
12/01:30pm 16.4 12.9 8.9 61 3.9 E 17 22 9 12 1013.3 1013.1 0.0
12/01:00pm 16.2 13.1 8.7 61 3.9 ENE 15 20 8 11 1013.7 1013.5 0.0
12/12:30pm 16.2 12.7 8.7 61 3.9 ENE 17 22 9 12 1013.9 1013.7 0.0
12/12:00pm 15.1 10.9 8.3 64 3.5 E 20 28 11 15 1014.4 1014.1 0.0
12/11:30am 14.8 10.8 9.0 68 3.0 E 20 28 11 15 1015.1 1014.9 0.0
12/11:00am 14.7 11.3 9.1 69 2.9 E 17 24 9 13 1015.6 1015.4 0.0
12/10:30am 14.1 10.3 9.1 72 2.6 E 19 24 10 13 1015.8 1015.6 0.0
12/10:00am 13.3 9.0 8.0 70 2.7 E 20 28 11 15 1015.9 1015.7 0.0
12/09:30am 12.7 7.9 7.4 70 2.6 E 22 30 12 16 1015.7 1015.5 0.0
12/09:00am 12.2 8.2 8.1 76 2.1 E 19 28 10 15 1015.9 1015.7 0.0
12/08:30am 11.3 6.6 7.8 79 1.7 E 22 30 12 16 1015.9 1015.7 0.0
12/08:00am 10.7 7.0 7.9 83 1.4 E 17 26 9 14 1015.8 1015.6 0.0
12/07:30am 9.7 5.5 7.5 86 1.1 E 19 24 10 13 1015.7 1015.5 0.0
12/07:00am 8.7 4.8 7.0 89 0.8 ESE 17 22 9 12 1015.5 1015.3 0.0
12/06:30am 8.2 4.2 6.7 90 0.7 ESE 17 24 9 13 1015.3 1015.1 0.0
12/06:00am 8.4 4.1 7.0 91 0.7 E 19 26 10 14 1015.2 1015.0 0.0
12/05:30am 8.3 4.5 7.4 94 0.4 ESE 17 22 9 12 1015.1 1014.9 0.0

Latest Capital City Observations: Canberra | Sydney | Melbourne | Brisbane | Adelaide | Perth | Hobart | Darwin

Other formats

Comma delimited format used in spreadsheet applications
http://www.bom.gov.au/fwo/IDS60901/IDS60901.94811.axf

JavaScript Object Notation format (JSON) in row-major order
http://www.bom.gov.au/fwo/IDS60901/IDS60901.94811.json

Data quality

Most of these data are generated automatically and are frequently updated. Quality checks on data are not normally performed. It is possible for incorrect values to appear. Refer to information at About Latest Weather Observations and please check the disclaimer before using these data.